sensor_id;sensor_type;location;lat;lon;timestamp;temperature;humidity
21772;DHT22;11047;47.904;8.110;2022-09-09T00:01:58;10.50;99.90
21772;DHT22;11047;47.904;8.110;2022-09-09T00:04:28;10.40;99.90
21772;DHT22;11047;47.904;8.110;2022-09-09T00:07:01;10.40;99.90
21772;DHT22;11047;47.904;8.110;2022-09-09T00:09:34;10.20;99.90
21772;DHT22;11047;47.904;8.110;2022-09-09T00:12:11;10.20;99.90
21772;DHT22;11047;47.904;8.110;2022-09-09T00:14:44;10.20;99.90
21772;DHT22;11047;47.904;8.110;2022-09-09T00:17:26;10.10;99.90
21772;DHT22;11047;47.904;8.110;2022-09-09T00:20:03;10.00;99.90
21772;DHT22;11047;47.904;8.110;2022-09-09T00:22:32;10.00;99.90
21772;DHT22;11047;47.904;8.110;2022-09-09T00:25:08;10.10;99.90
21772;DHT22;11047;47.904;8.110;2022-09-09T00:27:41;10.10;99.90
21772;DHT22;11047;47.904;8.110;2022-09-09T00:30:16;10.10;99.90
21772;DHT22;11047;47.904;8.110;2022-09-09T00:32:47;10.10;99.90
21772;DHT22;11047;47.904;8.110;2022-09-09T00:35:18;10.10;99.90
21772;DHT22;11047;47.904;8.110;2022-09-09T00:37:50;10.00;99.90
21772;DHT22;11047;47.904;8.110;2022-09-09T00:40:23;10.00;99.90
21772;DHT22;11047;47.904;8.110;2022-09-09T00:43:07;10.00;99.90
21772;DHT22;11047;47.904;8.110;2022-09-09T00:45:56;10.10;99.90
21772;DHT22;11047;47.904;8.110;2022-09-09T00:48:34;10.20;99.90
21772;DHT22;11047;47.904;8.110;2022-09-09T00:51:11;10.30;99.90
21772;DHT22;11047;47.904;8.110;2022-09-09T00:53:59;10.30;99.90
21772;DHT22;11047;47.904;8.110;2022-09-09T00:56:37;10.40;99.90
21772;DHT22;11047;47.904;8.110;2022-09-09T00:59:19;10.40;99.90
21772;DHT22;11047;47.904;8.110;2022-09-09T01:01:48;10.50;99.90
21772;DHT22;11047;47.904;8.110;2022-09-09T01:04:22;10.50;99.90
21772;DHT22;11047;47.904;8.110;2022-09-09T01:06:55;10.70;99.90
21772;DHT22;11047;47.904;8.110;2022-09-09T01:09:32;10.60;99.90
21772;DHT22;11047;47.904;8.110;2022-09-09T01:12:09;10.70;99.90
21772;DHT22;11047;47.904;8.110;2022-09-09T01:14:43;10.90;99.90
21772;DHT22;11047;47.904;8.110;2022-09-09T01:17:15;10.90;99.90
21772;DHT22;11047;47.904;8.110;2022-09-09T01:19:59;11.00;99.90
21772;DHT22;11047;47.904;8.110;2022-09-09T01:22:35;11.10;99.90
21772;DHT22;11047;47.904;8.110;2022-09-09T01:25:22;11.20;99.90
21772;DHT22;11047;47.904;8.110;2022-09-09T01:27:55;11.40;99.90
21772;DHT22;11047;47.904;8.110;2022-09-09T01:30:24;11.70;99.90
21772;DHT22;11047;47.904;8.110;2022-09-09T01:32:56;11.80;99.90
21772;DHT22;11047;47.904;8.110;2022-09-09T01:35:34;12.10;99.90
21772;DHT22;11047;47.904;8.110;2022-09-09T01:38:04;12.30;99.90
21772;DHT22;11047;47.904;8.110;2022-09-09T01:40:32;12.40;99.90
21772;DHT22;11047;47.904;8.110;2022-09-09T01:43:00;12.50;99.90
21772;DHT22;11047;47.904;8.110;2022-09-09T01:45:29;12.70;99.90
21772;DHT22;11047;47.904;8.110;2022-09-09T01:47:57;12.80;99.90
21772;DHT22;11047;47.904;8.110;2022-09-09T01:50:24;12.80;99.90
21772;DHT22;11047;47.904;8.110;2022-09-09T01:52:54;12.80;99.90
21772;DHT22;11047;47.904;8.110;2022-09-09T01:55:29;12.80;99.90
21772;DHT22;11047;47.904;8.110;2022-09-09T01:58:10;12.70;99.90
21772;DHT22;11047;47.904;8.110;2022-09-09T02:00:45;12.70;99.90
21772;DHT22;11047;47.904;8.110;2022-09-09T02:03:21;12.80;99.90
21772;DHT22;11047;47.904;8.110;2022-09-09T02:06:01;12.80;99.90
21772;DHT22;11047;47.904;8.110;2022-09-09T02:08:35;12.70;99.90
21772;DHT22;11047;47.904;8.110;2022-09-09T02:11:07;12.80;99.90
21772;DHT22;11047;47.904;8.110;2022-09-09T02:13:38;12.80;99.90
21772;DHT22;11047;47.904;8.110;2022-09-09T02:16:08;12.70;99.90
21772;DHT22;11047;47.904;8.110;2022-09-09T02:18:43;12.70;99.90
21772;DHT22;11047;47.904;8.110;2022-09-09T02:21:13;12.70;99.90
21772;DHT22;11047;47.904;8.110;2022-09-09T02:23:42;12.60;99.90
21772;DHT22;11047;47.904;8.110;2022-09-09T02:26:12;12.60;99.90
21772;DHT22;11047;47.904;8.110;2022-09-09T02:28:47;12.70;99.90
21772;DHT22;11047;47.904;8.110;2022-09-09T02:31:17;12.70;99.90
21772;DHT22;11047;47.904;8.110;2022-09-09T02:33:50;12.60;99.90
21772;DHT22;11047;47.904;8.110;2022-09-09T02:36:19;12.60;99.90
21772;DHT22;11047;47.904;8.110;2022-09-09T02:38:47;12.60;99.90
21772;DHT22;11047;47.904;8.110;2022-09-09T02:41:20;12.50;99.90
21772;DHT22;11047;47.904;8.110;2022-09-09T02:43:49;12.30;99.90
21772;DHT22;11047;47.904;8.110;2022-09-09T02:46:26;12.20;99.90
21772;DHT22;11047;47.904;8.110;2022-09-09T02:48:59;12.20;99.90
21772;DHT22;11047;47.904;8.110;2022-09-09T02:51:35;12.20;99.90
21772;DHT22;11047;47.904;8.110;2022-09-09T02:54:10;12.30;99.90
21772;DHT22;11047;47.904;8.110;2022-09-09T02:56:42;12.30;99.90
21772;DHT22;11047;47.904;8.110;2022-09-09T02:59:12;12.30;99.90
21772;DHT22;11047;47.904;8.110;2022-09-09T03:01:39;12.30;99.90
21772;DHT22;11047;47.904;8.110;2022-09-09T03:04:06;12.30;99.90
21772;DHT22;11047;47.904;8.110;2022-09-09T03:06:33;12.30;99.90
21772;DHT22;11047;47.904;8.110;2022-09-09T03:09:01;12.20;99.90
21772;DHT22;11047;47.904;8.110;2022-09-09T03:11:28;12.20;99.90
21772;DHT22;11047;47.904;8.110;2022-09-09T03:13:55;12.20;99.90
21772;DHT22;11047;47.904;8.110;2022-09-09T03:16:24;12.20;99.90
21772;DHT22;11047;47.904;8.110;2022-09-09T03:18:51;12.10;99.90
21772;DHT22;11047;47.904;8.110;2022-09-09T03:21:18;12.00;99.90
21772;DHT22;11047;47.904;8.110;2022-09-09T03:23:45;12.00;99.90
21772;DHT22;11047;47.904;8.110;2022-09-09T03:26:12;12.10;99.90
21772;DHT22;11047;47.904;8.110;2022-09-09T03:28:40;12.10;99.90
21772;DHT22;11047;47.904;8.110;2022-09-09T03:31:07;12.10;99.90
21772;DHT22;11047;47.904;8.110;2022-09-09T03:33:37;12.20;99.90
21772;DHT22;11047;47.904;8.110;2022-09-09T03:36:05;12.20;99.90
21772;DHT22;11047;47.904;8.110;2022-09-09T03:38:33;12.20;99.90
21772;DHT22;11047;47.904;8.110;2022-09-09T03:41:00;12.20;99.90
21772;DHT22;11047;47.904;8.110;2022-09-09T03:43:28;12.20;99.90
21772;DHT22;11047;47.904;8.110;2022-09-09T03:45:55;12.20;99.90
21772;DHT22;11047;47.904;8.110;2022-09-09T03:48:23;12.10;99.90
21772;DHT22;11047;47.904;8.110;2022-09-09T03:50:53;12.20;99.90
21772;DHT22;11047;47.904;8.110;2022-09-09T03:53:22;12.10;99.90
21772;DHT22;11047;47.904;8.110;2022-09-09T03:55:51;12.20;99.90
21772;DHT22;11047;47.904;8.110;2022-09-09T03:58:20;12.10;99.90
21772;DHT22;11047;47.904;8.110;2022-09-09T04:00:54;12.10;99.90
21772;DHT22;11047;47.904;8.110;2022-09-09T04:03:21;12.10;99.90
21772;DHT22;11047;47.904;8.110;2022-09-09T04:05:52;12.20;99.90
21772;DHT22;11047;47.904;8.110;2022-09-09T04:08:20;12.20;99.90
21772;DHT22;11047;47.904;8.110;2022-09-09T04:10:47;12.20;99.90
21772;DHT22;11047;47.904;8.110;2022-09-09T04:13:16;12.20;99.90
21772;DHT22;11047;47.904;8.110;2022-09-09T04:15:43;12.20;99.90
21772;DHT22;11047;47.904;8.110;2022-09-09T04:18:11;12.30;99.90
21772;DHT22;11047;47.904;8.110;2022-09-09T04:20:38;12.20;99.90
21772;DHT22;11047;47.904;8.110;2022-09-09T04:23:06;12.30;99.90
21772;DHT22;11047;47.904;8.110;2022-09-09T04:25:33;12.30;99.90
21772;DHT22;11047;47.904;8.110;2022-09-09T04:28:00;12.40;99.90
21772;DHT22;11047;47.904;8.110;2022-09-09T04:30:28;12.40;99.90
21772;DHT22;11047;47.904;8.110;2022-09-09T04:32:54;12.50;99.90
21772;DHT22;11047;47.904;8.110;2022-09-09T04:35:22;12.50;99.90
21772;DHT22;11047;47.904;8.110;2022-09-09T04:37:49;12.60;99.90
21772;DHT22;11047;47.904;8.110;2022-09-09T04:40:18;12.60;99.90
21772;DHT22;11047;47.904;8.110;2022-09-09T04:42:44;12.70;99.90
21772;DHT22;11047;47.904;8.110;2022-09-09T04:45:13;12.70;99.90
21772;DHT22;11047;47.904;8.110;2022-09-09T04:47:40;12.70;99.90
21772;DHT22;11047;47.904;8.110;2022-09-09T04:50:08;12.70;99.90
21772;DHT22;11047;47.904;8.110;2022-09-09T04:52:35;12.70;99.90
21772;DHT22;11047;47.904;8.110;2022-09-09T04:55:03;12.70;99.90
21772;DHT22;11047;47.904;8.110;2022-09-09T04:57:32;12.70;99.90
21772;DHT22;11047;47.904;8.110;2022-09-09T04:59:59;12.70;99.90
21772;DHT22;11047;47.904;8.110;2022-09-09T05:02:27;12.70;99.90
21772;DHT22;11047;47.904;8.110;2022-09-09T05:04:55;12.70;99.90
21772;DHT22;11047;47.904;8.110;2022-09-09T05:07:22;12.70;99.90
21772;DHT22;11047;47.904;8.110;2022-09-09T05:09:49;12.70;99.90
21772;DHT22;11047;47.904;8.110;2022-09-09T05:12:16;12.80;99.90
21772;DHT22;11047;47.904;8.110;2022-09-09T05:14:44;12.80;99.90
21772;DHT22;11047;47.904;8.110;2022-09-09T05:17:11;12.80;99.90
21772;DHT22;11047;47.904;8.110;2022-09-09T05:19:38;12.80;99.90
21772;DHT22;11047;47.904;8.110;2022-09-09T05:22:05;12.80;99.90
21772;DHT22;11047;47.904;8.110;2022-09-09T05:24:33;12.80;99.90
21772;DHT22;11047;47.904;8.110;2022-09-09T05:26:59;12.80;99.90
21772;DHT22;11047;47.904;8.110;2022-09-09T05:29:27;12.80;99.90
21772;DHT22;11047;47.904;8.110;2022-09-09T05:31:56;12.80;99.90
21772;DHT22;11047;47.904;8.110;2022-09-09T05:34:23;12.80;99.90
21772;DHT22;11047;47.904;8.110;2022-09-09T05:36:49;12.80;99.90
21772;DHT22;11047;47.904;8.110;2022-09-09T05:39:17;12.80;99.90
21772;DHT22;11047;47.904;8.110;2022-09-09T05:41:44;12.80;99.90
21772;DHT22;11047;47.904;8.110;2022-09-09T05:44:11;12.80;99.90
21772;DHT22;11047;47.904;8.110;2022-09-09T05:46:39;12.90;99.90
21772;DHT22;11047;47.904;8.110;2022-09-09T05:49:07;12.90;99.90
21772;DHT22;11047;47.904;8.110;2022-09-09T05:51:34;13.00;99.90
21772;DHT22;11047;47.904;8.110;2022-09-09T05:54:00;13.00;99.90
21772;DHT22;11047;47.904;8.110;2022-09-09T05:56:28;13.00;99.90
21772;DHT22;11047;47.904;8.110;2022-09-09T05:58:56;13.10;99.90
21772;DHT22;11047;47.904;8.110;2022-09-09T06:01:24;13.10;99.90
21772;DHT22;11047;47.904;8.110;2022-09-09T06:03:52;13.20;99.90
21772;DHT22;11047;47.904;8.110;2022-09-09T06:06:21;13.20;99.90
21772;DHT22;11047;47.904;8.110;2022-09-09T06:08:51;13.20;99.90
21772;DHT22;11047;47.904;8.110;2022-09-09T06:11:20;13.30;99.90
21772;DHT22;11047;47.904;8.110;2022-09-09T06:13:47;13.30;99.90
21772;DHT22;11047;47.904;8.110;2022-09-09T06:16:17;13.30;99.90
21772;DHT22;11047;47.904;8.110;2022-09-09T06:18:44;13.20;99.90
21772;DHT22;11047;47.904;8.110;2022-09-09T06:21:16;13.20;99.90
21772;DHT22;11047;47.904;8.110;2022-09-09T06:23:44;13.10;99.90
21772;DHT22;11047;47.904;8.110;2022-09-09T06:26:13;13.10;99.90
21772;DHT22;11047;47.904;8.110;2022-09-09T06:28:42;13.20;99.90
21772;DHT22;11047;47.904;8.110;2022-09-09T06:31:12;13.30;99.90
21772;DHT22;11047;47.904;8.110;2022-09-09T06:33:40;13.20;99.90
21772;DHT22;11047;47.904;8.110;2022-09-09T06:36:11;13.20;99.90
21772;DHT22;11047;47.904;8.110;2022-09-09T06:38:38;13.10;99.90
21772;DHT22;11047;47.904;8.110;2022-09-09T06:41:12;13.10;99.90
21772;DHT22;11047;47.904;8.110;2022-09-09T06:44:09;13.20;99.90
21772;DHT22;11047;47.904;8.110;2022-09-09T06:46:37;13.30;99.90
21772;DHT22;11047;47.904;8.110;2022-09-09T06:49:05;13.30;99.90
21772;DHT22;11047;47.904;8.110;2022-09-09T06:51:34;13.20;99.90
21772;DHT22;11047;47.904;8.110;2022-09-09T06:54:02;13.20;99.90
21772;DHT22;11047;47.904;8.110;2022-09-09T06:56:32;13.20;99.90
21772;DHT22;11047;47.904;8.110;2022-09-09T06:59:01;13.30;99.90
21772;DHT22;11047;47.904;8.110;2022-09-09T07:01:30;13.20;99.90
21772;DHT22;11047;47.904;8.110;2022-09-09T07:03:58;13.20;99.90
21772;DHT22;11047;47.904;8.110;2022-09-09T07:06:26;13.20;99.90
21772;DHT22;11047;47.904;8.110;2022-09-09T07:08:55;13.20;99.90
21772;DHT22;11047;47.904;8.110;2022-09-09T07:11:24;13.30;99.90
21772;DHT22;11047;47.904;8.110;2022-09-09T07:13:54;13.40;99.90
21772;DHT22;11047;47.904;8.110;2022-09-09T07:16:21;13.50;99.90
21772;DHT22;11047;47.904;8.110;2022-09-09T07:18:50;13.60;99.90
21772;DHT22;11047;47.904;8.110;2022-09-09T07:21:18;13.60;99.90
21772;DHT22;11047;47.904;8.110;2022-09-09T07:23:46;13.70;99.90
21772;DHT22;11047;47.904;8.110;2022-09-09T07:26:14;13.90;99.90
21772;DHT22;11047;47.904;8.110;2022-09-09T07:28:42;14.00;99.90
21772;DHT22;11047;47.904;8.110;2022-09-09T07:31:14;14.10;99.90
21772;DHT22;11047;47.904;8.110;2022-09-09T07:33:42;14.10;99.90
21772;DHT22;11047;47.904;8.110;2022-09-09T07:36:12;14.10;99.90
21772;DHT22;11047;47.904;8.110;2022-09-09T07:38:41;14.00;99.90
21772;DHT22;11047;47.904;8.110;2022-09-09T07:41:11;14.10;99.90
21772;DHT22;11047;47.904;8.110;2022-09-09T07:43:38;14.00;99.90
21772;DHT22;11047;47.904;8.110;2022-09-09T07:46:08;14.00;99.90
21772;DHT22;11047;47.904;8.110;2022-09-09T07:48:37;14.00;99.90
21772;DHT22;11047;47.904;8.110;2022-09-09T07:51:09;14.00;99.90
21772;DHT22;11047;47.904;8.110;2022-09-09T07:53:37;14.00;99.90
21772;DHT22;11047;47.904;8.110;2022-09-09T07:56:06;14.00;99.90
21772;DHT22;11047;47.904;8.110;2022-09-09T07:58:35;13.90;99.90
21772;DHT22;11047;47.904;8.110;2022-09-09T08:01:07;13.90;99.90
21772;DHT22;11047;47.904;8.110;2022-09-09T08:03:34;13.90;99.90
21772;DHT22;11047;47.904;8.110;2022-09-09T08:06:04;13.90;99.90
21772;DHT22;11047;47.904;8.110;2022-09-09T08:08:33;14.00;99.90
21772;DHT22;11047;47.904;8.110;2022-09-09T08:11:04;14.10;99.90
21772;DHT22;11047;47.904;8.110;2022-09-09T08:13:33;15.10;99.90
21772;DHT22;11047;47.904;8.110;2022-09-09T08:16:07;17.90;99.90
21772;DHT22;11047;47.904;8.110;2022-09-09T08:18:34;19.00;99.90
21772;DHT22;11047;47.904;8.110;2022-09-09T08:21:08;20.60;99.90
21772;DHT22;11047;47.904;8.110;2022-09-09T08:23:37;20.50;99.90
21772;DHT22;11047;47.904;8.110;2022-09-09T08:26:05;19.70;99.90
21772;DHT22;11047;47.904;8.110;2022-09-09T08:29:09;18.10;99.90
21772;DHT22;11047;47.904;8.110;2022-09-09T08:32:34;16.30;99.90
21772;DHT22;11047;47.904;8.110;2022-09-09T08:35:11;16.10;99.90
21772;DHT22;11047;47.904;8.110;2022-09-09T08:41:35;14.80;99.90
21772;DHT22;11047;47.904;8.110;2022-09-09T08:44:09;14.90;99.90
21772;DHT22;11047;47.904;8.110;2022-09-09T08:46:44;14.60;99.90
21772;DHT22;11047;47.904;8.110;2022-09-09T08:49:28;15.30;99.90
21772;DHT22;11047;47.904;8.110;2022-09-09T08:52:02;15.90;99.90
21772;DHT22;11047;47.904;8.110;2022-09-09T08:54:34;16.50;99.90
21772;DHT22;11047;47.904;8.110;2022-09-09T08:57:04;16.70;99.90
21772;DHT22;11047;47.904;8.110;2022-09-09T08:59:36;17.10;99.90
21772;DHT22;11047;47.904;8.110;2022-09-09T09:02:09;17.10;99.90
21772;DHT22;11047;47.904;8.110;2022-09-09T09:07:40;17.10;99.90
21772;DHT22;11047;47.904;8.110;2022-09-09T09:10:16;17.10;99.90
21772;DHT22;11047;47.904;8.110;2022-09-09T09:12:51;17.00;99.90
21772;DHT22;11047;47.904;8.110;2022-09-09T09:15:22;17.20;99.90
21772;DHT22;11047;47.904;8.110;2022-09-09T09:17:53;17.30;99.90
21772;DHT22;11047;47.904;8.110;2022-09-09T09:20:25;17.40;99.90
21772;DHT22;11047;47.904;8.110;2022-09-09T09:23:00;17.30;99.90
21772;DHT22;11047;47.904;8.110;2022-09-09T09:25:35;17.80;99.90
21772;DHT22;11047;47.904;8.110;2022-09-09T09:28:15;17.80;99.90
21772;DHT22;11047;47.904;8.110;2022-09-09T09:30:47;17.70;99.90
21772;DHT22;11047;47.904;8.110;2022-09-09T09:33:21;17.90;99.90
21772;DHT22;11047;47.904;8.110;2022-09-09T09:35:52;17.80;99.90
21772;DHT22;11047;47.904;8.110;2022-09-09T09:38:25;18.00;99.90
21772;DHT22;11047;47.904;8.110;2022-09-09T09:40:57;18.20;99.90
21772;DHT22;11047;47.904;8.110;2022-09-09T09:43:33;17.90;99.90
21772;DHT22;11047;47.904;8.110;2022-09-09T09:46:02;18.30;99.90
21772;DHT22;11047;47.904;8.110;2022-09-09T09:48:32;18.50;99.90
21772;DHT22;11047;47.904;8.110;2022-09-09T09:51:00;18.10;99.90
21772;DHT22;11047;47.904;8.110;2022-09-09T09:53:31;18.30;99.90
21772;DHT22;11047;47.904;8.110;2022-09-09T09:56:02;18.00;99.90
21772;DHT22;11047;47.904;8.110;2022-09-09T09:58:50;18.00;99.90
21772;DHT22;11047;47.904;8.110;2022-09-09T10:01:24;18.40;99.90
21772;DHT22;11047;47.904;8.110;2022-09-09T10:03:53;18.50;99.90
21772;DHT22;11047;47.904;8.110;2022-09-09T10:06:30;18.20;99.90
21772;DHT22;11047;47.904;8.110;2022-09-09T10:08:57;18.50;99.90
21772;DHT22;11047;47.904;8.110;2022-09-09T10:11:40;19.00;99.90
21772;DHT22;11047;47.904;8.110;2022-09-09T10:14:18;19.10;99.90
21772;DHT22;11047;47.904;8.110;2022-09-09T10:16:57;19.30;99.90
21772;DHT22;11047;47.904;8.110;2022-09-09T10:19:30;18.70;99.90
21772;DHT22;11047;47.904;8.110;2022-09-09T10:22:08;18.20;99.90
21772;DHT22;11047;47.904;8.110;2022-09-09T10:27:57;18.50;99.90
21772;DHT22;11047;47.904;8.110;2022-09-09T10:30:35;18.20;99.90
21772;DHT22;11047;47.904;8.110;2022-09-09T10:33:10;18.20;99.90
21772;DHT22;11047;47.904;8.110;2022-09-09T10:35:44;18.40;99.90
21772;DHT22;11047;47.904;8.110;2022-09-09T10:38:18;18.70;99.90
21772;DHT22;11047;47.904;8.110;2022-09-09T10:41:00;18.80;99.90
21772;DHT22;11047;47.904;8.110;2022-09-09T10:43:46;18.90;99.90
21772;DHT22;11047;47.904;8.110;2022-09-09T10:46:25;19.50;99.90
21772;DHT22;11047;47.904;8.110;2022-09-09T10:49:03;18.80;99.90
21772;DHT22;11047;47.904;8.110;2022-09-09T10:51:39;18.70;99.90
21772;DHT22;11047;47.904;8.110;2022-09-09T10:54:16;18.70;99.90
21772;DHT22;11047;47.904;8.110;2022-09-09T10:56:48;19.00;99.90
21772;DHT22;11047;47.904;8.110;2022-09-09T10:59:22;19.00;99.90
21772;DHT22;11047;47.904;8.110;2022-09-09T11:01:56;19.70;99.90
21772;DHT22;11047;47.904;8.110;2022-09-09T11:04:28;19.80;99.90
21772;DHT22;11047;47.904;8.110;2022-09-09T11:07:02;19.40;99.90
21772;DHT22;11047;47.904;8.110;2022-09-09T11:09:36;19.20;99.90
21772;DHT22;11047;47.904;8.110;2022-09-09T11:12:05;18.60;99.90
21772;DHT22;11047;47.904;8.110;2022-09-09T11:14:39;18.80;99.90
21772;DHT22;11047;47.904;8.110;2022-09-09T11:17:12;18.30;99.90
21772;DHT22;11047;47.904;8.110;2022-09-09T11:19:43;18.10;99.90
21772;DHT22;11047;47.904;8.110;2022-09-09T11:22:18;17.70;99.90
21772;DHT22;11047;47.904;8.110;2022-09-09T11:24:50;17.60;99.90
21772;DHT22;11047;47.904;8.110;2022-09-09T11:27:21;17.40;99.90
21772;DHT22;11047;47.904;8.110;2022-09-09T11:30:16;17.20;99.90
21772;DHT22;11047;47.904;8.110;2022-09-09T11:33:04;17.20;99.90
21772;DHT22;11047;47.904;8.110;2022-09-09T11:35:47;17.00;99.90
21772;DHT22;11047;47.904;8.110;2022-09-09T11:38:19;16.80;99.90
21772;DHT22;11047;47.904;8.110;2022-09-09T11:40:55;16.60;99.90
21772;DHT22;11047;47.904;8.110;2022-09-09T11:43:25;16.30;99.90
21772;DHT22;11047;47.904;8.110;2022-09-09T11:45:55;16.50;99.90
21772;DHT22;11047;47.904;8.110;2022-09-09T11:48:32;16.60;99.90
21772;DHT22;11047;47.904;8.110;2022-09-09T11:51:02;16.90;99.90
21772;DHT22;11047;47.904;8.110;2022-09-09T11:53:31;17.10;99.90
21772;DHT22;11047;47.904;8.110;2022-09-09T11:56:10;17.40;99.90
21772;DHT22;11047;47.904;8.110;2022-09-09T11:58:42;17.50;99.90
21772;DHT22;11047;47.904;8.110;2022-09-09T12:01:39;16.90;99.90
21772;DHT22;11047;47.904;8.110;2022-09-09T12:04:36;17.30;99.90
21772;DHT22;11047;47.904;8.110;2022-09-09T12:07:25;17.20;99.90
21772;DHT22;11047;47.904;8.110;2022-09-09T12:09:58;16.80;99.90
21772;DHT22;11047;47.904;8.110;2022-09-09T12:12:31;16.70;99.90
21772;DHT22;11047;47.904;8.110;2022-09-09T12:15:23;16.50;99.90
21772;DHT22;11047;47.904;8.110;2022-09-09T12:17:54;16.60;99.90
21772;DHT22;11047;47.904;8.110;2022-09-09T12:20:30;16.80;99.90
21772;DHT22;11047;47.904;8.110;2022-09-09T12:23:13;17.10;99.90
21772;DHT22;11047;47.904;8.110;2022-09-09T12:25:53;16.80;99.90
21772;DHT22;11047;47.904;8.110;2022-09-09T12:28:25;16.60;99.90
21772;DHT22;11047;47.904;8.110;2022-09-09T12:31:01;16.50;99.90
21772;DHT22;11047;47.904;8.110;2022-09-09T12:33:34;16.40;99.90
21772;DHT22;11047;47.904;8.110;2022-09-09T12:36:04;16.30;99.90
21772;DHT22;11047;47.904;8.110;2022-09-09T12:38:35;16.20;99.90
21772;DHT22;11047;47.904;8.110;2022-09-09T12:41:03;16.40;99.90
21772;DHT22;11047;47.904;8.110;2022-09-09T12:43:30;16.80;99.90
21772;DHT22;11047;47.904;8.110;2022-09-09T12:45:59;17.30;99.90
21772;DHT22;11047;47.904;8.110;2022-09-09T12:48:32;17.50;99.90
21772;DHT22;11047;47.904;8.110;2022-09-09T12:51:00;18.00;99.90
21772;DHT22;11047;47.904;8.110;2022-09-09T12:53:32;18.30;99.90
21772;DHT22;11047;47.904;8.110;2022-09-09T12:56:03;18.40;99.90
21772;DHT22;11047;47.904;8.110;2022-09-09T12:58:38;18.20;99.90
21772;DHT22;11047;47.904;8.110;2022-09-09T13:01:06;18.10;99.90
21772;DHT22;11047;47.904;8.110;2022-09-09T13:03:47;17.60;99.90
21772;DHT22;11047;47.904;8.110;2022-09-09T13:06:22;17.50;99.90
21772;DHT22;11047;47.904;8.110;2022-09-09T13:08:51;17.10;99.90
21772;DHT22;11047;47.904;8.110;2022-09-09T13:11:21;17.00;99.90
21772;DHT22;11047;47.904;8.110;2022-09-09T13:13:52;16.70;99.90
21772;DHT22;11047;47.904;8.110;2022-09-09T13:16:23;16.60;99.90
21772;DHT22;11047;47.904;8.110;2022-09-09T13:18:52;16.40;99.90
21772;DHT22;11047;47.904;8.110;2022-09-09T13:21:31;16.80;99.90
21772;DHT22;11047;47.904;8.110;2022-09-09T13:24:00;16.80;99.90
21772;DHT22;11047;47.904;8.110;2022-09-09T13:26:40;16.90;99.90
21772;DHT22;11047;47.904;8.110;2022-09-09T13:29:16;16.90;99.90
21772;DHT22;11047;47.904;8.110;2022-09-09T13:31:46;17.00;99.90
21772;DHT22;11047;47.904;8.110;2022-09-09T13:34:25;16.80;99.90
21772;DHT22;11047;47.904;8.110;2022-09-09T13:36:59;16.50;99.90
21772;DHT22;11047;47.904;8.110;2022-09-09T13:39:29;16.50;99.90
21772;DHT22;11047;47.904;8.110;2022-09-09T13:41:56;16.40;99.90
21772;DHT22;11047;47.904;8.110;2022-09-09T13:44:27;15.90;99.90
21772;DHT22;11047;47.904;8.110;2022-09-09T13:47:03;15.30;99.90
21772;DHT22;11047;47.904;8.110;2022-09-09T13:49:31;15.10;99.90
21772;DHT22;11047;47.904;8.110;2022-09-09T13:52:10;14.80;99.90
21772;DHT22;11047;47.904;8.110;2022-09-09T13:54:39;14.80;99.90
21772;DHT22;11047;47.904;8.110;2022-09-09T13:57:15;15.10;99.90
21772;DHT22;11047;47.904;8.110;2022-09-09T13:59:42;15.30;99.90
21772;DHT22;11047;47.904;8.110;2022-09-09T14:02:09;15.40;99.90
21772;DHT22;11047;47.904;8.110;2022-09-09T14:04:36;15.70;99.90
21772;DHT22;11047;47.904;8.110;2022-09-09T14:07:03;16.10;99.90
21772;DHT22;11047;47.904;8.110;2022-09-09T14:09:30;16.20;99.90
21772;DHT22;11047;47.904;8.110;2022-09-09T14:11:58;16.30;99.90
21772;DHT22;11047;47.904;8.110;2022-09-09T14:14:25;16.30;99.90
21772;DHT22;11047;47.904;8.110;2022-09-09T14:16:53;16.50;99.90
21772;DHT22;11047;47.904;8.110;2022-09-09T14:19:20;16.50;99.90
21772;DHT22;11047;47.904;8.110;2022-09-09T14:21:46;16.40;99.90
21772;DHT22;11047;47.904;8.110;2022-09-09T14:24:14;16.60;99.90
21772;DHT22;11047;47.904;8.110;2022-09-09T14:26:41;16.60;99.90
21772;DHT22;11047;47.904;8.110;2022-09-09T14:29:10;16.80;99.90
21772;DHT22;11047;47.904;8.110;2022-09-09T14:31:37;16.80;99.90
21772;DHT22;11047;47.904;8.110;2022-09-09T14:34:04;16.80;99.90
21772;DHT22;11047;47.904;8.110;2022-09-09T14:36:31;16.70;99.90
21772;DHT22;11047;47.904;8.110;2022-09-09T14:38:59;16.70;99.90
21772;DHT22;11047;47.904;8.110;2022-09-09T14:41:26;16.50;99.90
21772;DHT22;11047;47.904;8.110;2022-09-09T14:43:54;16.20;99.90
21772;DHT22;11047;47.904;8.110;2022-09-09T14:46:23;16.10;99.90
21772;DHT22;11047;47.904;8.110;2022-09-09T14:48:50;16.20;99.90
21772;DHT22;11047;47.904;8.110;2022-09-09T14:51:20;16.20;99.90
21772;DHT22;11047;47.904;8.110;2022-09-09T14:53:50;16.20;99.90
21772;DHT22;11047;47.904;8.110;2022-09-09T14:56:21;16.20;99.90
21772;DHT22;11047;47.904;8.110;2022-09-09T14:58:48;16.40;99.90
21772;DHT22;11047;47.904;8.110;2022-09-09T15:01:18;16.30;99.90
21772;DHT22;11047;47.904;8.110;2022-09-09T15:03:51;16.30;99.90
21772;DHT22;11047;47.904;8.110;2022-09-09T15:06:18;16.30;99.90
21772;DHT22;11047;47.904;8.110;2022-09-09T15:08:46;16.30;99.90
21772;DHT22;11047;47.904;8.110;2022-09-09T15:11:14;16.20;99.90
21772;DHT22;11047;47.904;8.110;2022-09-09T15:13:42;16.20;99.90
21772;DHT22;11047;47.904;8.110;2022-09-09T15:16:11;16.00;99.90
21772;DHT22;11047;47.904;8.110;2022-09-09T15:18:38;15.90;99.90
21772;DHT22;11047;47.904;8.110;2022-09-09T15:21:10;15.90;99.90
21772;DHT22;11047;47.904;8.110;2022-09-09T15:23:37;16.00;99.90
21772;DHT22;11047;47.904;8.110;2022-09-09T15:26:05;16.00;99.90
21772;DHT22;11047;47.904;8.110;2022-09-09T15:28:32;16.00;99.90
21772;DHT22;11047;47.904;8.110;2022-09-09T15:31:05;16.10;99.90
21772;DHT22;11047;47.904;8.110;2022-09-09T15:33:33;16.20;99.90
21772;DHT22;11047;47.904;8.110;2022-09-09T15:36:14;16.00;99.90
21772;DHT22;11047;47.904;8.110;2022-09-09T15:38:41;15.90;99.90
21772;DHT22;11047;47.904;8.110;2022-09-09T15:41:09;15.70;99.90
21772;DHT22;11047;47.904;8.110;2022-09-09T15:43:36;15.60;99.90
21772;DHT22;11047;47.904;8.110;2022-09-09T15:46:21;15.70;99.90
21772;DHT22;11047;47.904;8.110;2022-09-09T15:48:50;15.60;99.90
21772;DHT22;11047;47.904;8.110;2022-09-09T15:51:18;15.50;99.90
21772;DHT22;11047;47.904;8.110;2022-09-09T15:53:45;15.50;99.90
21772;DHT22;11047;47.904;8.110;2022-09-09T15:56:13;15.40;99.90
21772;DHT22;11047;47.904;8.110;2022-09-09T15:58:40;15.40;99.90
21772;DHT22;11047;47.904;8.110;2022-09-09T16:01:09;15.30;99.90
21772;DHT22;11047;47.904;8.110;2022-09-09T16:03:39;15.30;99.90
21772;DHT22;11047;47.904;8.110;2022-09-09T16:06:06;15.30;99.90
21772;DHT22;11047;47.904;8.110;2022-09-09T16:08:35;15.30;99.90